createdAt,value
2023-05-29T00:00:01.860Z,61122.34
2023-05-29T00:02:30.711Z,61121.00
2023-05-29T00:04:59.319Z,61112.66
2023-05-29T00:07:29.391Z,61120.84
2023-05-29T00:09:57.858Z,61115.53
2023-05-29T00:12:26.452Z,61103.81
2023-05-29T00:14:54.777Z,61103.25
2023-05-29T00:17:23.159Z,61103.66
2023-05-29T00:19:51.703Z,61095.88
2023-05-29T00:22:20.301Z,61111.72
2023-05-29T00:24:49.987Z,61114.59
2023-05-29T00:27:18.324Z,61116.75
2023-05-29T00:29:47.295Z,61118.94
2023-05-29T00:32:15.645Z,61120.72
2023-05-29T00:34:43.980Z,61130.69
2023-05-29T00:37:12.374Z,61138.31
2023-05-29T00:39:40.821Z,61138.59
2023-05-29T00:42:10.733Z,61142.28
2023-05-29T00:44:39.140Z,61131.38
2023-05-29T00:47:07.921Z,61119.34
2023-05-29T00:49:38.041Z,61107.47
2023-05-29T00:52:08.670Z,61098.75
2023-05-29T00:54:37.469Z,61094.25
2023-05-29T00:57:07.763Z,61082.38
2023-05-29T00:59:37.589Z,61063.00
2023-05-29T01:02:07.126Z,61058.09
2023-05-29T01:04:36.034Z,61058.50
2023-05-29T01:07:05.028Z,61055.91
2023-05-29T01:09:35.308Z,61058.91
2023-05-29T01:12:12.887Z,61066.81
2023-05-29T01:14:50.314Z,61066.53
2023-05-29T01:17:25.551Z,61079.63
2023-05-29T01:20:14.766Z,61089.47
2023-05-29T01:23:04.441Z,61093.28
2023-05-29T01:25:44.493Z,61095.19
2023-05-29T01:28:15.227Z,61082.91
2023-05-29T01:30:45.073Z,61074.44
2023-05-29T01:33:13.800Z,61076.50
2023-05-29T01:35:42.147Z,61074.72
2023-05-29T01:38:10.506Z,61070.91
2023-05-29T01:40:39.506Z,61065.59
2023-05-29T01:43:08.513Z,61071.47
2023-05-29T01:45:38.752Z,61064.91
2023-05-29T01:48:07.922Z,61059.31
2023-05-29T01:50:37.192Z,61057.13
2023-05-29T01:53:05.921Z,61046.50
2023-05-29T01:55:34.428Z,61039.94
2023-05-29T01:58:03.960Z,61035.84
2023-05-29T02:00:32.431Z,61032.97
2023-05-29T02:03:03.157Z,61020.72
2023-05-29T02:05:31.628Z,61017.44
2023-05-29T02:08:00.050Z,61018.91
2023-05-29T02:10:28.442Z,61016.72
2023-05-29T02:12:58.320Z,61012.50
2023-05-29T02:15:26.672Z,61011.84
2023-05-29T02:17:55.053Z,61008.56
2023-05-29T02:20:24.797Z,61007.47
2023-05-29T02:22:53.230Z,60997.25
2023-05-29T02:25:21.569Z,60996.97
2023-05-29T02:27:49.899Z,61001.88
2023-05-29T02:30:18.316Z,61001.72
2023-05-29T02:32:46.830Z,60991.25
2023-05-29T02:35:16.125Z,60992.19
2023-05-29T02:37:46.937Z,60988.38
2023-05-29T02:40:15.516Z,60982.50
2023-05-29T02:42:43.885Z,60975.97
2023-05-29T02:45:12.767Z,60977.88
2023-05-29T02:47:41.199Z,60969.84
2023-05-29T02:50:10.416Z,60969.69
2023-05-29T02:52:38.866Z,60958.53
2023-05-29T02:55:09.386Z,60959.88
2023-05-29T02:57:37.847Z,60955.78
2023-05-29T03:00:09.048Z,60952.41
2023-05-29T03:02:37.617Z,60948.03
2023-05-29T03:05:07.644Z,60948.44
2023-05-29T03:07:36.063Z,60932.66
2023-05-29T03:10:05.419Z,60935.63
2023-05-29T03:12:35.130Z,60932.75
2023-05-29T03:15:03.488Z,60931.53
2023-05-29T03:17:31.947Z,60926.22
2023-05-29T03:20:00.387Z,60926.63
2023-05-29T03:22:28.756Z,60912.19
2023-05-29T03:24:57.297Z,60905.13
2023-05-29T03:27:25.617Z,60904.41
2023-05-29T03:29:55.803Z,60906.63
2023-05-29T03:32:24.322Z,60897.06
2023-05-29T03:34:52.771Z,60896.25
2023-05-29T03:37:21.112Z,60888.22
2023-05-29T03:39:49.487Z,60888.22
2023-05-29T03:42:17.840Z,60888.06
2023-05-29T03:44:46.161Z,60880.72
2023-05-29T03:47:15.988Z,60880.59
2023-05-29T03:49:44.433Z,60882.63
2023-05-29T03:52:12.848Z,60880.59
2023-05-29T03:54:41.210Z,60883.72
2023-05-29T03:57:10.003Z,60882.09
2023-05-29T03:59:38.404Z,60883.88
2023-05-29T04:02:07.822Z,60885.47
2023-05-29T04:04:37.742Z,60884.00
2023-05-29T04:07:06.204Z,60889.84
2023-05-29T04:09:34.869Z,60890.53
2023-05-29T04:12:04.315Z,60889.47
2023-05-29T04:14:32.641Z,60899.94
2023-05-29T04:17:01.168Z,60897.88
2023-05-29T04:19:29.534Z,60901.69
2023-05-29T04:21:59.353Z,60906.47
2023-05-29T04:24:27.742Z,60904.03
2023-05-29T04:26:56.074Z,60907.28
2023-05-29T04:29:24.419Z,60916.00
2023-05-29T04:31:52.768Z,60919.97
2023-05-29T04:34:21.485Z,60925.81
2023-05-29T04:36:50.244Z,60930.88
2023-05-29T04:39:23.162Z,60939.28
2023-05-29T04:41:52.307Z,60940.53
2023-05-29T04:44:20.694Z,60944.34
2023-05-29T04:46:49.683Z,60950.34
2023-05-29T04:49:18.114Z,60952.13
2023-05-29T04:51:47.426Z,60963.69
2023-05-29T04:54:15.930Z,60965.06
2023-05-29T04:56:45.633Z,60971.47
2023-05-29T04:59:14.328Z,60974.34
2023-05-29T05:01:44.339Z,60980.88
2023-05-29T05:04:13.063Z,60983.63
2023-05-29T05:06:41.448Z,60995.88
2023-05-29T05:09:09.779Z,60998.72
2023-05-29T05:11:38.149Z,61005.69
2023-05-29T05:14:07.911Z,61008.97
2023-05-29T05:16:36.368Z,61009.78
2023-05-29T05:19:04.727Z,61015.94
2023-05-29T05:21:33.986Z,61017.44
2023-05-29T05:24:02.411Z,61018.13
2023-05-29T05:26:30.771Z,61021.41
2023-05-29T05:28:59.190Z,61028.34
2023-05-29T05:31:29.079Z,61031.63
2023-05-29T05:33:57.485Z,61032.19
2023-05-29T05:36:26.097Z,61034.34
2023-05-29T05:38:54.464Z,61038.16
2023-05-29T05:41:23.272Z,61044.03
2023-05-29T05:43:52.131Z,61037.91
2023-05-29T05:46:20.553Z,61051.66
2023-05-29T05:48:50.355Z,61058.63
2023-05-29T05:51:18.990Z,61058.91
2023-05-29T05:53:47.535Z,61068.03
2023-05-29T05:56:15.878Z,61070.91
2023-05-29T05:58:44.311Z,61073.50
2023-05-29T06:01:12.714Z,61084.81
2023-05-29T06:03:41.420Z,61088.25
2023-05-29T06:06:11.664Z,61094.91
2023-05-29T06:08:41.557Z,61103.38
2023-05-29T06:11:09.999Z,61104.06
2023-05-29T06:13:38.430Z,61110.59
2023-05-29T06:16:07.136Z,61119.78
2023-05-29T06:18:35.643Z,61120.03
2023-05-29T06:21:04.389Z,61129.31
2023-05-29T06:23:34.746Z,61140.09
2023-05-29T06:26:03.127Z,61151.44
2023-05-29T06:28:31.997Z,61157.59
2023-05-29T06:31:00.365Z,61156.91
2023-05-29T06:33:28.725Z,61174.13
2023-05-29T06:35:57.652Z,61182.31
2023-05-29T06:38:26.017Z,61196.25
2023-05-29T06:40:55.853Z,61197.59
2023-05-29T06:43:24.322Z,61199.81
2023-05-29T06:45:52.772Z,61206.34
2023-05-29T06:48:21.904Z,61211.81
2023-05-29T06:50:50.524Z,61218.50
2023-05-29T06:53:18.946Z,61220.28
2023-05-29T06:55:47.385Z,61236.97
2023-05-29T06:58:17.084Z,61246.81
2023-05-29T07:00:45.558Z,61254.44
2023-05-29T07:03:14.062Z,61260.59
2023-05-29T07:05:42.474Z,61272.50
2023-05-29T07:08:10.992Z,61273.31
2023-05-29T07:10:39.320Z,61286.84
2023-05-29T07:13:08.198Z,61298.34
2023-05-29T07:15:39.613Z,61314.06
2023-05-29T07:18:08.014Z,61319.94
2023-05-29T07:20:39.054Z,61322.28
2023-05-29T07:23:07.947Z,61320.75
2023-05-29T07:25:36.424Z,61321.97
2023-05-29T07:28:18.218Z,61334.84
2023-05-29T07:30:51.644Z,61340.59
2023-05-29T07:33:20.130Z,61338.69
2023-05-29T07:35:48.552Z,61342.25
2023-05-29T07:38:17.578Z,61341.94
2023-05-29T07:40:46.069Z,61349.63
2023-05-29T07:43:14.589Z,61357.84
2023-05-29T07:45:42.979Z,61365.19
2023-05-29T07:48:13.230Z,61378.91
2023-05-29T07:50:41.614Z,61378.06
2023-05-29T07:53:09.964Z,61386.28
2023-05-29T07:55:38.333Z,61398.22
2023-05-29T07:58:06.726Z,61398.88
2023-05-29T08:00:35.209Z,61410.25
2023-05-29T08:03:04.795Z,61411.59
2023-05-29T08:05:34.583Z,61416.53
2023-05-29T08:08:02.975Z,61414.91
2023-05-29T08:10:31.355Z,61420.09
2023-05-29T08:12:59.713Z,61426.38
2023-05-29T08:15:28.077Z,61437.63
2023-05-29T08:17:56.484Z,61442.25
2023-05-29T08:20:24.961Z,61448.84
2023-05-29T08:22:54.709Z,61461.72
2023-05-29T08:25:23.098Z,61463.50
2023-05-29T08:27:51.480Z,61458.28
2023-05-29T08:30:19.836Z,61463.19
2023-05-29T08:32:48.413Z,61462.38
2023-05-29T08:35:17.428Z,61459.66
2023-05-29T08:37:45.848Z,61453.63
2023-05-29T08:40:15.927Z,61456.06
2023-05-29T08:42:49.007Z,61472.94
2023-05-29T08:45:20.896Z,61475.94
2023-05-29T08:47:53.740Z,61477.31
2023-05-29T08:50:22.839Z,61494.84
2023-05-29T08:52:52.004Z,61512.53
2023-05-29T08:55:21.948Z,61512.38
2023-05-29T08:57:50.856Z,61514.16
2023-05-29T09:00:21.371Z,61519.63
2023-05-29T09:02:50.517Z,61533.63
2023-05-29T09:05:19.564Z,61529.50
2023-05-29T09:07:48.505Z,61531.16
2023-05-29T09:10:17.500Z,61529.78
2023-05-29T09:12:49.417Z,61539.78
2023-05-29T09:15:22.288Z,61538.00
2023-05-29T09:17:54.130Z,61538.00
2023-05-29T09:20:25.179Z,61540.88
2023-05-29T09:22:57.934Z,61545.69
2023-05-29T09:25:28.131Z,61552.94
2023-05-29T09:28:03.831Z,61555.81
2023-05-29T09:30:38.812Z,61562.66
2023-05-29T09:33:08.131Z,61579.66
2023-05-29T09:35:38.096Z,61595.16
2023-05-29T09:38:07.326Z,61603.94
2023-05-29T09:40:37.611Z,61598.97
2023-05-29T09:43:11.845Z,61598.41
2023-05-29T09:45:41.513Z,61609.72
2023-05-29T09:48:14.048Z,61610.63
2023-05-29T09:50:44.820Z,61626.28
2023-05-29T09:53:21.296Z,61626.28
2023-05-29T09:55:49.969Z,61633.97
2023-05-29T09:58:20.421Z,61620.50
2023-05-29T10:00:49.623Z,61622.56
2023-05-29T10:03:19.010Z,61612.56
2023-05-29T10:05:51.624Z,61619.69
2023-05-29T10:08:22.387Z,61626.41
2023-05-29T10:10:57.280Z,61641.09
2023-05-29T10:13:33.132Z,61647.94
2023-05-29T10:16:05.365Z,61654.50
2023-05-29T10:18:40.552Z,61663.56
2023-05-29T10:21:09.802Z,61668.63
2023-05-29T10:23:40.156Z,61666.00
2023-05-29T10:26:14.923Z,61650.94
2023-05-29T10:28:50.203Z,61675.78
2023-05-29T10:31:24.672Z,61680.59
2023-05-29T10:34:05.612Z,61672.91
2023-05-29T10:36:41.701Z,61649.84
2023-05-29T10:39:10.305Z,61642.31
2023-05-29T10:41:41.722Z,61669.75
2023-05-29T10:44:45.939Z,61716.38
2023-05-29T10:47:25.350Z,61759.88
2023-05-29T10:49:53.875Z,61769.19
2023-05-29T10:52:23.405Z,61756.59
2023-05-29T10:54:58.092Z,61748.63
2023-05-29T10:57:27.504Z,61745.63
2023-05-29T11:00:07.652Z,61749.44
2023-05-29T11:02:41.340Z,61771.94
2023-05-29T11:05:23.590Z,61774.69
2023-05-29T11:07:58.244Z,61750.53
2023-05-29T11:10:58.007Z,61747.66
2023-05-29T11:13:28.211Z,61773.91
2023-05-29T11:16:14.165Z,61796.56
2023-05-29T11:18:47.285Z,61828.00
2023-05-29T11:21:31.475Z,61833.47
2023-05-29T11:24:06.775Z,61852.16
2023-05-29T11:26:39.478Z,61804.91
2023-05-29T11:29:11.825Z,61809.31
2023-05-29T11:31:41.989Z,61800.94
2023-05-29T11:34:17.028Z,61793.81
2023-05-29T11:36:46.775Z,61799.44
2023-05-29T11:39:16.070Z,61813.47
2023-05-29T11:41:44.503Z,61825.13
2023-05-29T11:44:15.982Z,61831.28
2023-05-29T11:46:44.344Z,61887.78
2023-05-29T11:49:14.469Z,61921.41
2023-05-29T11:51:45.165Z,61925.16
2023-05-29T11:54:14.588Z,61878.97
2023-05-29T11:56:43.037Z,61859.19
2023-05-29T11:59:13.181Z,61846.00
2023-05-29T12:01:41.571Z,61872.91
2023-05-29T12:04:18.180Z,61903.56
2023-05-29T12:06:46.550Z,61923.38
2023-05-29T12:09:26.998Z,61928.03
2023-05-29T12:11:56.288Z,61966.50
2023-05-29T12:14:24.668Z,61983.44
2023-05-29T12:16:53.150Z,61968.19
2023-05-29T12:19:23.064Z,61971.59
2023-05-29T12:21:51.482Z,61978.06
2023-05-29T12:24:23.014Z,62011.22
2023-05-29T12:26:53.238Z,61981.94
2023-05-29T12:29:22.018Z,61983.69
2023-05-29T12:32:00.039Z,61926.91
2023-05-29T12:34:37.680Z,61907.44
2023-05-29T12:37:11.378Z,61887.78
2023-05-29T12:39:41.186Z,61869.31
2023-05-29T12:42:09.941Z,61840.50
2023-05-29T12:44:39.749Z,61841.16
2023-05-29T12:47:08.741Z,61855.88
2023-05-29T12:49:39.701Z,61906.44
2023-05-29T12:52:11.143Z,61917.44
2023-05-29T12:54:40.259Z,61935.16
2023-05-29T12:57:09.257Z,61925.41
2023-05-29T12:59:37.686Z,61898.34
2023-05-29T13:02:08.104Z,61919.22
2023-05-29T13:04:36.697Z,61940.53
2023-05-29T13:07:07.541Z,61931.06
2023-05-29T13:09:35.901Z,61920.44
2023-05-29T13:12:04.440Z,61928.03
2023-05-29T13:14:32.786Z,61956.63
2023-05-29T13:17:01.184Z,61965.53
2023-05-29T13:19:29.538Z,61974.09
2023-05-29T13:21:58.388Z,62016.69
2023-05-29T13:24:28.099Z,61995.13
2023-05-29T13:26:56.472Z,62019.75
2023-05-29T13:29:24.877Z,62056.63
2023-05-29T13:31:53.239Z,62069.72
2023-05-29T13:34:23.978Z,62058.94
2023-05-29T13:36:52.362Z,62024.81
2023-05-29T13:39:20.790Z,62053.56
2023-05-29T13:41:50.706Z,62012.84
2023-05-29T13:44:19.141Z,61984.69
2023-05-29T13:46:47.505Z,61972.44
2023-05-29T13:49:15.887Z,61940.13
2023-05-29T13:51:46.445Z,61969.56
2023-05-29T13:54:15.201Z,61984.13
2023-05-29T13:56:45.017Z,62005.03
2023-05-29T13:59:16.012Z,62001.72
2023-05-29T14:01:44.540Z,61975.88
2023-05-29T14:04:13.242Z,61992.94
2023-05-29T14:06:41.601Z,62023.06
2023-05-29T14:09:11.027Z,62028.69
2023-05-29T14:11:39.434Z,62003.94
2023-05-29T14:14:08.093Z,61936.69
2023-05-29T14:16:39.699Z,61981.38
2023-05-29T14:19:08.614Z,61983.56
2023-05-29T14:21:37.476Z,62002.84
2023-05-29T14:24:06.306Z,62003.94
2023-05-29T14:26:34.786Z,62004.16
2023-05-29T14:29:13.446Z,62018.78
2023-05-29T14:31:45.454Z,61985.22
2023-05-29T14:34:14.486Z,62007.78
2023-05-29T14:36:45.550Z,62051.13
2023-05-29T14:39:14.342Z,62052.91
2023-05-29T14:41:42.695Z,62006.69
2023-05-29T14:44:12.572Z,61971.03
2023-05-29T14:46:41.696Z,61969.56
2023-05-29T14:49:11.567Z,61941.22
2023-05-29T14:51:40.255Z,61942.75
2023-05-29T14:54:10.326Z,61970.09
2023-05-29T14:56:38.683Z,62005.88
2023-05-29T14:59:07.067Z,62001.72
2023-05-29T15:01:35.636Z,62011.09
2023-05-29T15:04:04.901Z,61986.31
2023-05-29T15:06:35.016Z,61951.66
2023-05-29T15:09:03.716Z,61953.19
2023-05-29T15:11:32.549Z,61957.72
2023-05-29T15:14:01.300Z,61913.72
2023-05-29T15:16:30.324Z,61918.66
2023-05-29T15:18:58.765Z,61902.06
2023-05-29T15:21:27.169Z,61922.28
2023-05-29T15:23:56.914Z,61932.97
2023-05-29T15:26:25.823Z,61972.88
2023-05-29T15:28:54.157Z,62002.41
2023-05-29T15:31:23.653Z,61995.13
2023-05-29T15:33:52.138Z,61977.94
2023-05-29T15:36:21.976Z,61972.44
2023-05-29T15:38:50.405Z,61964.75
2023-05-29T15:41:20.326Z,61929.41
2023-05-29T15:43:48.790Z,61883.94
2023-05-29T15:46:17.310Z,61874.56
2023-05-29T15:48:45.673Z,61885.56
2023-05-29T15:51:14.262Z,61866.44
2023-05-29T15:53:42.664Z,61851.06
2023-05-29T15:56:11.067Z,61853.41
2023-05-29T15:58:40.902Z,61862.59
2023-05-29T16:01:09.325Z,61885.03
2023-05-29T16:03:37.928Z,61871.94
2023-05-29T16:06:06.499Z,61862.03
2023-05-29T16:08:35.027Z,61841.72
2023-05-29T16:11:04.410Z,61851.38
2023-05-29T16:13:34.173Z,61849.28
2023-05-29T16:16:04.778Z,61843.91
2023-05-29T16:18:33.279Z,61820.56
2023-05-29T16:21:01.772Z,61809.31
2023-05-29T16:23:30.129Z,61790.66
2023-05-29T16:25:58.562Z,61804.66
2023-05-29T16:28:27.005Z,61801.06
2023-05-29T16:30:55.982Z,61796.44
2023-05-29T16:33:26.130Z,61790.66
2023-05-29T16:35:54.729Z,61791.75
2023-05-29T16:38:23.381Z,61787.19
2023-05-29T16:40:51.898Z,61776.22
2023-05-29T16:43:20.227Z,61778.00
2023-05-29T16:45:48.643Z,61783.78
2023-05-29T16:48:17.260Z,61785.56
2023-05-29T16:50:47.048Z,61788.16
2023-05-29T16:53:15.459Z,61788.28
2023-05-29T16:55:44.073Z,61798.09
2023-05-29T16:58:12.497Z,61804.66
2023-05-29T17:00:41.008Z,61796.56
2023-05-29T17:03:09.681Z,61791.59
2023-05-29T17:05:38.262Z,61792.84
2023-05-29T17:08:11.005Z,61792.56
2023-05-29T17:10:40.028Z,61783.50
2023-05-29T17:13:08.514Z,61782.28
2023-05-29T17:15:37.076Z,61777.44
2023-05-29T17:18:06.032Z,61776.09
2023-05-29T17:20:36.783Z,61770.72
2023-05-29T17:23:05.310Z,61754.50
2023-05-29T17:25:35.539Z,61750.41
2023-05-29T17:28:04.007Z,61742.88
2023-05-29T17:30:32.461Z,61736.28
2023-05-29T17:33:04.096Z,61733.94
2023-05-29T17:35:33.138Z,61724.34
2023-05-29T17:38:02.934Z,61725.84
2023-05-29T17:40:31.424Z,61718.72
2023-05-29T17:43:01.428Z,61722.19
2023-05-29T17:45:29.833Z,61715.72
2023-05-29T17:47:58.343Z,61709.13
2023-05-29T17:50:26.829Z,61699.50
2023-05-29T17:52:55.982Z,61696.19
2023-05-29T17:55:25.214Z,61690.56
2023-05-29T17:57:53.603Z,61681.25
2023-05-29T18:00:23.988Z,61677.97
2023-05-29T18:02:52.661Z,61673.59
2023-05-29T18:05:21.356Z,61671.13
2023-05-29T18:07:49.898Z,61666.56
2023-05-29T18:10:21.834Z,61667.41
2023-05-29T18:12:51.290Z,61659.75
2023-05-29T18:15:20.255Z,61646.84
2023-05-29T18:17:50.103Z,61649.31
2023-05-29T18:20:19.874Z,61640.97
2023-05-29T18:22:48.609Z,61636.69
2023-05-29T18:25:18.135Z,61629.03
2023-05-29T18:27:46.966Z,61607.88
2023-05-29T18:30:15.663Z,61604.88
2023-05-29T18:32:44.117Z,61590.47
2023-05-29T18:35:14.199Z,61586.50
2023-05-29T18:37:42.566Z,61584.19
2023-05-29T18:40:12.032Z,61578.13
2023-05-29T18:42:40.400Z,61566.78
2023-05-29T18:45:09.716Z,61558.00
2023-05-29T18:47:38.192Z,61561.03
2023-05-29T18:50:07.797Z,61554.44
2023-05-29T18:52:37.679Z,61548.53
2023-05-29T18:55:06.764Z,61548.53
2023-05-29T18:57:35.197Z,61542.63
2023-05-29T19:00:03.791Z,61537.72
2023-05-29T19:02:32.539Z,61534.03
2023-05-29T19:05:01.182Z,61527.06
2023-05-29T19:07:29.643Z,61510.31
2023-05-29T19:09:59.373Z,61509.09
2023-05-29T19:12:27.774Z,61501.97
2023-05-29T19:14:56.931Z,61493.88
2023-05-29T19:17:25.371Z,61484.41
2023-05-29T19:19:53.777Z,61486.50
2023-05-29T19:22:22.756Z,61479.94
2023-05-29T19:24:51.357Z,61467.03
2023-05-29T19:27:21.490Z,61467.84
2023-05-29T19:29:50.795Z,61455.41
2023-05-29T19:32:21.339Z,61458.00
2023-05-29T19:34:52.323Z,61456.50
2023-05-29T19:37:21.134Z,61448.41
2023-05-29T19:39:53.340Z,61444.03
2023-05-29T19:42:25.036Z,61442.69
2023-05-29T19:44:54.113Z,61433.91
2023-05-29T19:47:22.659Z,61441.31
2023-05-29T19:49:51.358Z,61421.88
2023-05-29T19:52:19.811Z,61413.78
2023-05-29T19:54:48.317Z,61408.75
2023-05-29T19:57:17.143Z,61401.63
2023-05-29T19:59:49.582Z,61394.09
2023-05-29T20:02:18.134Z,61383.81
2023-05-29T20:04:47.028Z,61384.09
2023-05-29T20:07:15.554Z,61378.59
2023-05-29T20:09:43.962Z,61372.03
2023-05-29T20:12:12.451Z,61363.44
2023-05-29T20:14:40.921Z,61358.50
2023-05-29T20:17:10.851Z,61355.09
2023-05-29T20:19:40.766Z,61352.91
2023-05-29T20:22:09.233Z,61353.31
2023-05-29T20:24:37.606Z,61346.19
2023-05-29T20:27:07.203Z,61340.31
2023-05-29T20:29:36.752Z,61341.69
2023-05-29T20:32:06.372Z,61335.38
2023-05-29T20:34:36.344Z,61333.88
2023-05-29T20:37:05.262Z,61332.66
2023-05-29T20:39:35.930Z,61323.63
2023-05-29T20:42:05.374Z,61322.28
2023-05-29T20:44:34.654Z,61318.44
2023-05-29T20:47:03.871Z,61310.25
2023-05-29T20:49:32.321Z,61296.28
2023-05-29T20:52:02.317Z,61293.41
2023-05-29T20:54:31.431Z,61291.09
2023-05-29T20:56:59.859Z,61283.72
2023-05-29T20:59:28.297Z,61283.97
2023-05-29T21:01:57.086Z,61280.72
2023-05-29T21:04:25.575Z,61277.44
2023-05-29T21:06:53.983Z,61274.66
2023-05-29T21:09:23.981Z,61265.66
2023-05-29T21:11:52.490Z,61264.97
2023-05-29T21:14:24.285Z,61265.38
2023-05-29T21:16:52.742Z,61254.72
2023-05-29T21:19:21.653Z,61253.34
2023-05-29T21:21:50.055Z,61251.03
2023-05-29T21:24:18.645Z,61246.09
2023-05-29T21:26:48.448Z,61240.25
2023-05-29T21:29:16.944Z,61233.66
2023-05-29T21:31:45.883Z,61231.50
2023-05-29T21:34:14.300Z,61227.13
2023-05-29T21:36:42.688Z,61221.66
2023-05-29T21:39:11.042Z,61219.47
2023-05-29T21:41:39.607Z,61209.91
2023-05-29T21:44:09.397Z,61210.72
2023-05-29T21:46:37.839Z,61203.75
2023-05-29T21:49:06.543Z,61197.88
2023-05-29T21:51:35.903Z,61204.16
2023-05-29T21:54:04.475Z,61204.03
2023-05-29T21:56:33.085Z,61193.94
2023-05-29T21:59:01.520Z,61190.50
2023-05-29T22:01:31.433Z,61183.81
2023-05-29T22:04:00.118Z,61167.84
2023-05-29T22:06:28.661Z,61162.66
2023-05-29T22:08:57.060Z,61150.22
2023-05-29T22:11:27.027Z,61144.06
2023-05-29T22:13:55.481Z,61138.59
2023-05-29T22:16:24.006Z,61134.66
2023-05-29T22:19:04.494Z,61126.19
2023-05-29T22:21:34.426Z,61124.41
2023-05-29T22:24:03.841Z,61122.09
2023-05-29T22:26:33.002Z,61107.75
2023-05-29T22:29:01.384Z,61111.84
2023-05-29T22:31:29.977Z,61102.84
2023-05-29T22:34:00.187Z,61092.59
2023-05-29T22:36:28.743Z,61089.88
2023-05-29T22:38:57.445Z,61096.44
2023-05-29T22:41:25.934Z,61088.94
2023-05-29T22:43:54.368Z,61084.00
2023-05-29T22:46:22.996Z,61086.19
2023-05-29T22:48:54.232Z,61085.91
2023-05-29T22:51:26.185Z,61093.84
2023-05-29T22:53:54.668Z,61096.56
2023-05-29T22:56:23.025Z,61085.78
2023-05-29T22:58:51.477Z,61078.97
2023-05-29T23:01:19.867Z,61075.00
2023-05-29T23:03:48.721Z,61062.16
2023-05-29T23:06:17.227Z,61059.72
2023-05-29T23:08:47.046Z,61055.63
2023-05-29T23:11:15.749Z,61053.31
2023-05-29T23:13:44.199Z,61052.75
2023-05-29T23:16:13.486Z,61040.34
2023-05-29T23:18:41.843Z,61033.00
2023-05-29T23:21:10.158Z,61038.59
2023-05-29T23:23:38.552Z,61032.19
2023-05-29T23:26:08.231Z,61026.84
2023-05-29T23:28:36.774Z,61024.66
2023-05-29T23:31:05.166Z,61021.78
2023-05-29T23:33:33.713Z,61013.72
2023-05-29T23:36:02.016Z,61011.84
2023-05-29T23:38:30.820Z,61009.09
2023-05-29T23:40:59.414Z,61009.50
2023-05-29T23:43:29.440Z,61003.66
2023-05-29T23:45:57.816Z,61003.66
2023-05-29T23:48:26.170Z,61002.16
2023-05-29T23:50:54.590Z,61006.25
2023-05-29T23:53:22.936Z,60994.81
2023-05-29T23:55:51.318Z,60997.25
2023-05-29T23:58:19.645Z,61002.97
